Time;durP1;ratioP1;P1;durP2;ratioP2;P2;SDS_P1;SDS_P2;PMS_P1;PMS_P2;Temp;Humidity;BMP_temperature;BMP_pressure;BME280_temperature;BME280_humidity;BME280_pressure;Samples;Min_cycle;Max_cycle;Signal;HPM_P1;HPM_P2
2023/08/01 00:00:33;;;;;;;3.30;1.65;;;16.90;99.90;;;;;;5038669;28;20218;-88
2023/08/01 00:03:00;;;;;;;5.07;1.60;;;16.90;99.90;;;;;;5038807;28;20178;-92
2023/08/01 00:05:26;;;;;;;4.22;1.40;;;16.90;99.90;;;;;;5038771;28;20174;-92
2023/08/01 00:07:52;;;;;;;8.02;1.60;;;16.90;99.90;;;;;;5038902;28;20261;-91
2023/08/01 00:10:18;;;;;;;1.95;1.20;;;16.90;99.90;;;;;;5038942;28;20683;-92
2023/08/01 00:12:48;;;;;;;2.05;1.40;;;16.90;99.90;;;;;;5040723;28;20260;-90
2023/08/01 00:15:14;;;;;;;2.55;1.33;;;16.90;99.90;;;;;;5058585;28;20201;-91
2023/08/01 00:17:40;;;;;;;1.88;1.38;;;16.90;99.90;;;;;;5058721;28;20188;-95
2023/08/01 00:20:07;;;;;;;2.95;1.33;;;16.90;99.90;;;;;;5058578;28;20663;-94
2023/08/01 00:22:34;;;;;;;3.25;1.30;;;16.90;99.90;;;;;;5058445;28;20230;-89
2023/08/01 00:25:00;;;;;;;1.98;1.45;;;16.90;99.90;;;;;;5076230;28;20228;-89
2023/08/01 00:27:26;;;;;;;1.75;1.30;;;16.90;99.90;;;;;;5058407;28;20177;-94
2023/08/01 00:29:52;;;;;;;2.17;1.30;;;16.80;99.90;;;;;;5058102;28;20497;-89
2023/08/01 00:32:21;;;;;;;3.08;1.20;;;16.80;99.90;;;;;;5076213;28;20631;-89
2023/08/01 00:34:49;;;;;;;3.13;1.40;;;16.90;99.90;;;;;;5058458;28;20173;-93
2023/08/01 00:37:15;;;;;;;1.95;1.40;;;16.90;99.90;;;;;;5058417;28;20271;-94
2023/08/01 00:39:42;;;;;;;3.25;1.13;;;16.90;99.90;;;;;;5058175;28;20303;-93
2023/08/01 00:42:07;;;;;;;2.85;1.20;;;16.90;99.90;;;;;;5058138;28;20250;-91
2023/08/01 00:44:38;;;;;;;5.43;1.23;;;16.90;99.90;;;;;;5040677;28;20506;-93
2023/08/01 00:47:04;;;;;;;5.13;1.20;;;16.90;99.90;;;;;;5038238;28;20209;-92
2023/08/01 00:49:30;;;;;;;1.85;1.08;;;16.90;99.90;;;;;;5038462;28;20208;-93
2023/08/01 00:51:55;;;;;;;2.25;1.20;;;16.90;99.90;;;;;;5037774;28;20174;-92
2023/08/01 00:54:27;;;;;;;1.85;1.05;;;16.90;99.90;;;;;;5037392;28;20184;-92
2023/08/01 00:56:53;;;;;;;3.50;1.10;;;16.90;99.90;;;;;;5038112;28;20201;-92
2023/08/01 00:59:19;;;;;;;1.17;0.98;;;16.90;99.90;;;;;;5037688;28;20197;-91
2023/08/01 01:01:44;;;;;;;4.93;1.20;;;16.90;99.90;;;;;;5037877;28;20188;-91
2023/08/01 01:04:17;;;;;;;2.13;1.27;;;16.90;99.90;;;;;;5037775;28;20177;-91
2023/08/01 01:06:58;;;;;;;4.18;1.10;;;16.90;99.90;;;;;;5037716;28;20217;-91
2023/08/01 01:09:24;;;;;;;1.98;1.45;;;16.90;99.90;;;;;;5037609;28;20224;-90
2023/08/01 01:11:49;;;;;;;6.93;1.38;;;16.90;99.90;;;;;;5037520;28;20210;-90
2023/08/01 01:14:15;;;;;;;1.75;1.20;;;16.90;99.90;;;;;;5037245;28;20182;-88
2023/08/01 01:16:41;;;;;;;1.88;1.10;;;16.90;99.90;;;;;;5037581;28;20220;-90
2023/08/01 01:19:08;;;;;;;2.88;1.10;;;16.90;99.90;;;;;;5037517;28;20221;-90
2023/08/01 01:21:39;;;;;;;2.35;1.23;;;16.90;99.90;;;;;;5037484;28;20238;-91
2023/08/01 01:24:07;;;;;;;3.17;1.23;;;16.90;99.90;;;;;;5036780;28;20664;-91
2023/08/01 01:26:34;;;;;;;3.72;1.10;;;16.90;99.90;;;;;;5036707;28;20181;-90
2023/08/01 01:29:02;;;;;;;3.15;1.20;;;16.90;99.90;;;;;;5036646;28;20178;-91
2023/08/01 01:31:28;;;;;;;1.73;1.13;;;16.80;99.90;;;;;;5054936;28;20231;-93
2023/08/01 01:33:59;;;;;;;3.60;1.50;;;16.90;99.90;;;;;;5037539;28;20260;-90
2023/08/01 01:36:25;;;;;;;2.13;1.10;;;16.80;99.90;;;;;;5037255;28;20213;-91
2023/08/01 01:38:50;;;;;;;4.57;1.27;;;16.80;99.90;;;;;;5037258;28;20229;-91
2023/08/01 01:41:16;;;;;;;2.63;1.20;;;16.80;99.90;;;;;;5037204;28;20187;-92
2023/08/01 01:43:44;;;;;;;4.18;1.30;;;16.80;99.90;;;;;;5037207;28;20186;-91
2023/08/01 01:46:10;;;;;;;2.75;1.20;;;16.80;99.90;;;;;;5037059;28;20170;-93
2023/08/01 01:48:35;;;;;;;3.80;1.30;;;16.80;99.90;;;;;;5037147;28;20609;-93
2023/08/01 01:51:01;;;;;;;5.18;1.27;;;16.80;99.90;;;;;;5037194;28;20178;-93
2023/08/01 01:53:29;;;;;;;2.95;1.45;;;16.70;99.90;;;;;;5037057;28;20621;-90
2023/08/01 01:55:55;;;;;;;1.52;1.23;;;16.70;99.90;;;;;;5037329;28;20180;-92
2023/08/01 01:58:20;;;;;;;4.35;1.40;;;16.70;99.90;;;;;;5037198;28;20177;-92
2023/08/01 02:00:46;;;;;;;2.60;1.27;;;16.70;99.90;;;;;;5036784;28;20213;-92
2023/08/01 02:03:13;;;;;;;3.58;1.17;;;16.70;99.90;;;;;;5037002;28;20212;-92
2023/08/01 02:05:40;;;;;;;3.15;1.10;;;16.70;99.90;;;;;;5040713;28;20170;-92
2023/08/01 02:08:06;;;;;;;3.28;1.38;;;16.80;99.90;;;;;;5041081;28;20177;-92
2023/08/01 02:10:32;;;;;;;3.40;1.40;;;16.80;99.90;;;;;;5040896;28;20253;-92
2023/08/01 02:12:58;;;;;;;1.90;1.30;;;16.80;99.90;;;;;;5040725;28;20185;-92
2023/08/01 02:15:35;;;;;;;3.92;1.50;;;16.80;99.90;;;;;;5040437;28;20261;-92
2023/08/01 02:20:37;;;;;;;2.25;1.30;;;16.80;99.90;;;;;;5218735;22;20246;-81
2023/08/01 02:23:03;;;;;;;1.88;1.20;;;16.80;99.90;;;;;;5019395;28;20269;-81
2023/08/01 02:25:29;;;;;;;5.13;1.70;;;16.80;99.90;;;;;;5036954;28;20566;-82
2023/08/01 02:27:54;;;;;;;2.28;1.30;;;16.80;99.90;;;;;;5037078;28;20170;-82
2023/08/01 02:30:20;;;;;;;3.70;1.27;;;16.80;99.90;;;;;;5036928;28;20254;-82
2023/08/01 02:32:46;;;;;;;2.40;1.40;;;16.80;99.90;;;;;;5019238;28;20179;-82
2023/08/01 02:35:11;;;;;;;5.43;1.60;;;16.70;99.90;;;;;;5018938;28;20181;-82
2023/08/01 02:37:37;;;;;;;3.17;1.20;;;16.80;99.90;;;;;;5019177;28;20197;-82
2023/08/01 02:40:07;;;;;;;4.00;1.38;;;16.80;99.90;;;;;;5036701;28;20289;-81
2023/08/01 02:42:33;;;;;;;2.83;1.20;;;16.70;99.90;;;;;;5019141;28;20628;-81
2023/08/01 02:44:59;;;;;;;2.63;1.30;;;16.80;99.90;;;;;;5036700;28;20200;-81
2023/08/01 02:47:24;;;;;;;4.15;1.30;;;16.80;99.90;;;;;;5036684;28;20180;-82
2023/08/01 02:49:50;;;;;;;4.05;1.35;;;16.80;99.90;;;;;;5045558;28;20224;-82
2023/08/01 02:52:16;;;;;;;3.60;1.52;;;16.80;99.90;;;;;;5056555;28;20162;-81
2023/08/01 02:54:41;;;;;;;2.50;1.50;;;16.80;99.90;;;;;;5056411;28;20177;-81
2023/08/01 02:57:07;;;;;;;3.22;1.30;;;16.80;99.90;;;;;;5056514;28;20177;-82
2023/08/01 02:59:33;;;;;;;2.53;1.40;;;16.80;99.90;;;;;;5056255;28;20236;-81
2023/08/01 03:01:59;;;;;;;4.30;1.30;;;16.80;99.90;;;;;;5038367;28;20177;-81
2023/08/01 03:04:25;;;;;;;4.10;1.20;;;16.80;99.90;;;;;;5038283;28;20174;-82
2023/08/01 03:06:50;;;;;;;3.30;1.08;;;16.80;99.90;;;;;;5056311;28;20174;-81
2023/08/01 03:09:16;;;;;;;2.80;1.08;;;16.80;99.90;;;;;;5056144;28;20177;-82
2023/08/01 03:11:42;;;;;;;1.98;1.00;;;16.80;99.90;;;;;;5056198;28;20266;-81
2023/08/01 03:14:07;;;;;;;2.95;1.10;;;16.80;99.90;;;;;;5056051;28;20170;-81
2023/08/01 03:16:33;;;;;;;2.72;0.88;;;16.80;99.90;;;;;;5055180;28;20177;-82
2023/08/01 03:19:04;;;;;;;4.53;1.02;;;16.70;99.90;;;;;;5055508;28;20229;-81
2023/08/01 03:21:34;;;;;;;1.75;0.95;;;16.70;99.90;;;;;;5038040;28;20178;-82
2023/08/01 03:24:00;;;;;;;3.13;0.85;;;16.70;99.90;;;;;;5055907;28;20197;-81
2023/08/01 03:26:28;;;;;;;1.15;0.90;;;16.70;99.90;;;;;;5055890;28;20182;-81
2023/08/01 03:28:55;;;;;;;2.55;0.80;;;16.70;99.90;;;;;;5055807;28;20181;-81
2023/08/01 03:31:23;;;;;;;3.25;0.80;;;16.70;99.90;;;;;;5037939;28;20236;-81
2023/08/01 03:33:49;;;;;;;5.32;0.75;;;16.60;99.90;;;;;;5055897;28;20505;-82
2023/08/01 03:36:15;;;;;;;0.80;0.73;;;16.60;99.90;;;;;;5037554;28;20170;-82
2023/08/01 03:38:40;;;;;;;1.20;0.73;;;16.60;99.90;;;;;;5055688;28;20542;-83
2023/08/01 03:41:06;;;;;;;2.35;1.00;;;16.60;99.90;;;;;;5037715;28;20188;-82
2023/08/01 03:43:32;;;;;;;3.88;1.08;;;16.60;99.90;;;;;;5055548;28;20224;-82
2023/08/01 03:45:58;;;;;;;1.40;1.00;;;16.50;99.90;;;;;;5037716;28;20231;-83
2023/08/01 03:48:23;;;;;;;2.30;1.15;;;16.50;99.90;;;;;;5055723;28;20519;-83
2023/08/01 03:50:49;;;;;;;2.17;1.10;;;16.50;99.90;;;;;;5037195;28;20182;-83
2023/08/01 03:53:15;;;;;;;2.35;1.25;;;16.50;99.90;;;;;;5055426;28;20540;-82
2023/08/01 03:55:42;;;;;;;3.33;1.10;;;16.50;99.90;;;;;;5037350;28;20205;-83
2023/08/01 03:58:08;;;;;;;2.13;0.90;;;16.50;99.90;;;;;;5037537;28;20632;-82
2023/08/01 04:00:33;;;;;;;1.15;0.90;;;16.50;99.90;;;;;;5055281;28;20204;-83
2023/08/01 04:03:01;;;;;;;1.95;0.88;;;16.50;99.90;;;;;;5037373;28;20213;-82
2023/08/01 04:05:28;;;;;;;1.60;1.20;;;16.50;99.90;;;;;;5054774;28;20209;-82
2023/08/01 04:07:57;;;;;;;1.67;0.82;;;16.50;99.90;;;;;;5037282;28;20170;-82
2023/08/01 04:10:23;;;;;;;1.98;0.98;;;16.50;99.90;;;;;;5055089;28;20185;-82
2023/08/01 04:12:49;;;;;;;3.40;1.10;;;16.50;99.90;;;;;;5037152;28;20177;-83
2023/08/01 04:15:14;;;;;;;1.55;0.88;;;16.50;99.90;;;;;;5055035;28;20670;-83
2023/08/01 04:17:40;;;;;;;4.55;1.10;;;16.50;99.90;;;;;;5054949;28;20169;-83
2023/08/01 04:20:06;;;;;;;3.13;1.10;;;16.50;99.90;;;;;;5054323;28;20233;-83
2023/08/01 04:22:32;;;;;;;2.17;0.90;;;16.50;99.90;;;;;;5037016;28;20782;-82
2023/08/01 04:24:58;;;;;;;3.13;1.00;;;16.50;99.90;;;;;;5054660;28;20218;-82
2023/08/01 04:27:24;;;;;;;2.22;1.00;;;16.50;99.90;;;;;;5054791;28;20184;-82
2023/08/01 04:29:49;;;;;;;2.05;1.05;;;16.50;99.90;;;;;;5054841;28;20177;-82
2023/08/01 04:32:15;;;;;;;1.85;1.10;;;16.50;99.90;;;;;;5054507;28;20181;-82
2023/08/01 04:34:41;;;;;;;1.88;1.17;;;16.50;99.90;;;;;;5036193;28;20182;-82
2023/08/01 04:37:07;;;;;;;2.80;0.90;;;16.50;99.90;;;;;;5054617;28;20173;-83
2023/08/01 04:39:33;;;;;;;1.25;1.08;;;16.50;99.90;;;;;;5054305;28;20640;-82
2023/08/01 04:41:59;;;;;;;2.45;0.73;;;16.50;99.90;;;;;;5036552;28;20178;-82
2023/08/01 04:44:24;;;;;;;4.47;1.20;;;16.50;99.90;;;;;;5036671;28;20209;-83
2023/08/01 04:46:50;;;;;;;2.45;1.10;;;16.60;99.90;;;;;;5054430;28;20176;-81
2023/08/01 04:49:16;;;;;;;2.95;1.25;;;16.60;99.90;;;;;;5053871;28;20267;-80
2023/08/01 04:51:41;;;;;;;2.17;1.10;;;16.60;99.90;;;;;;5054259;28;20247;-82
2023/08/01 04:54:07;;;;;;;3.15;1.08;;;16.50;99.90;;;;;;5036262;28;20608;-82
2023/08/01 04:56:33;;;;;;;1.77;0.90;;;16.60;99.90;;;;;;5053144;28;20177;-82
2023/08/01 04:58:58;;;;;;;1.50;0.80;;;16.50;99.90;;;;;;5036584;28;20211;-82
2023/08/01 05:01:24;;;;;;;2.38;1.10;;;16.60;99.90;;;;;;5054018;28;20182;-82
2023/08/01 05:03:50;;;;;;;1.38;1.00;;;16.60;99.90;;;;;;5054021;28;20178;-82
2023/08/01 05:06:15;;;;;;;2.95;1.20;;;16.50;99.90;;;;;;5035907;28;20634;-82
2023/08/01 05:08:41;;;;;;;2.67;1.08;;;16.60;99.90;;;;;;5053966;28;20170;-82
2023/08/01 05:11:07;;;;;;;2.75;1.02;;;16.50;99.90;;;;;;5035941;28;20190;-82
2023/08/01 05:13:33;;;;;;;1.20;0.93;;;16.50;99.90;;;;;;5053848;28;20176;-83
2023/08/01 05:15:58;;;;;;;6.00;1.00;;;16.60;99.90;;;;;;5036008;28;20178;-82
2023/08/01 05:18:24;;;;;;;1.05;0.82;;;16.50;99.90;;;;;;5053839;28;20723;-82
2023/08/01 05:20:50;;;;;;;2.33;1.25;;;16.50;99.90;;;;;;5053323;28;20229;-83
2023/08/01 05:23:15;;;;;;;1.38;0.93;;;16.50;99.90;;;;;;5035778;28;20211;-82
2023/08/01 05:25:41;;;;;;;2.47;1.15;;;16.50;99.90;;;;;;5035842;28;20213;-83
2023/08/01 05:28:07;;;;;;;2.20;0.80;;;16.60;99.90;;;;;;5053695;28;20258;-83
2023/08/01 05:30:33;;;;;;;1.77;0.85;;;16.60;99.90;;;;;;5035719;28;20184;-83
2023/08/01 05:32:58;;;;;;;3.20;0.88;;;16.60;99.90;;;;;;5035546;28;20174;-82
2023/08/01 05:35:24;;;;;;;0.70;0.70;;;16.60;99.90;;;;;;5053403;28;20172;-83
2023/08/01 05:37:50;;;;;;;1.20;0.70;;;16.60;99.90;;;;;;5053569;28;20173;-83
2023/08/01 05:40:15;;;;;;;0.98;0.60;;;16.70;99.90;;;;;;5052688;28;20208;-83
2023/08/01 05:42:41;;;;;;;1.13;0.70;;;16.70;99.90;;;;;;5053512;28;20215;-83
2023/08/01 05:45:08;;;;;;;0.98;0.57;;;16.70;99.90;;;;;;5053495;28;20216;-82
2023/08/01 05:47:35;;;;;;;2.85;0.50;;;16.70;99.90;;;;;;5035476;28;20180;-81
2023/08/01 05:50:01;;;;;;;3.88;0.47;;;16.70;99.90;;;;;;5035302;28;20292;-82
2023/08/01 05:52:27;;;;;;;2.05;0.40;;;16.70;99.90;;;;;;5035462;28;20767;-83
2023/08/01 05:54:52;;;;;;;2.42;0.40;;;16.70;99.90;;;;;;5053434;28;20170;-83
2023/08/01 05:57:18;;;;;;;0.55;0.40;;;16.80;99.90;;;;;;5035581;28;20264;-83
2023/08/01 05:59:44;;;;;;;2.35;0.43;;;16.80;99.90;;;;;;5053413;28;20232;-83
2023/08/01 06:02:10;;;;;;;0.70;0.50;;;16.80;99.90;;;;;;5053276;28;20205;-82
2023/08/01 06:04:36;;;;;;;0.57;0.40;;;16.80;99.90;;;;;;5053203;28;20176;-83
2023/08/01 06:07:01;;;;;;;1.30;0.40;;;16.80;99.90;;;;;;5053308;28;20508;-83
2023/08/01 06:09:27;;;;;;;1.08;0.43;;;16.70;99.90;;;;;;5053288;28;20174;-83
2023/08/01 06:11:53;;;;;;;2.05;0.47;;;16.70;99.90;;;;;;5053224;28;20174;-83
2023/08/01 06:14:19;;;;;;;0.95;0.30;;;16.70;99.90;;;;;;5034002;28;20235;-83
2023/08/01 06:16:45;;;;;;;0.50;0.40;;;16.70;99.90;;;;;;5053197;28;20173;-82
2023/08/01 06:19:10;;;;;;;2.45;0.43;;;16.70;99.90;;;;;;5035021;28;20278;-82
2023/08/01 06:21:36;;;;;;;1.63;0.63;;;16.70;99.90;;;;;;5053132;28;20166;-83
2023/08/01 06:24:02;;;;;;;3.40;0.52;;;16.70;99.90;;;;;;5052992;28;20261;-83
2023/08/01 06:26:28;;;;;;;0.80;0.40;;;16.70;99.90;;;;;;5035456;28;20189;-83
2023/08/01 06:28:54;;;;;;;0.40;0.38;;;16.70;99.90;;;;;;5052913;28;20181;-83
2023/08/01 06:31:23;;;;;;;3.50;0.40;;;16.70;99.90;;;;;;5052855;28;20173;-83
2023/08/01 06:33:48;;;;;;;1.90;0.55;;;16.70;99.90;;;;;;5035283;28;20178;-83
2023/08/01 06:36:16;;;;;;;0.80;0.40;;;16.70;99.90;;;;;;5035251;28;20248;-83
2023/08/01 06:38:42;;;;;;;6.55;0.70;;;16.70;99.90;;;;;;5035236;28;20178;-83
2023/08/01 06:41:07;;;;;;;1.88;0.50;;;16.70;99.90;;;;;;5034862;28;20192;-83
2023/08/01 06:43:33;;;;;;;1.50;0.70;;;16.80;99.90;;;;;;5052556;28;20562;-83
2023/08/01 06:45:59;;;;;;;1.30;0.60;;;16.70;99.90;;;;;;5035029;28;20573;-83
2023/08/01 06:48:25;;;;;;;1.40;0.70;;;16.70;99.90;;;;;;5052991;28;20182;-83
2023/08/01 06:50:51;;;;;;;3.85;0.73;;;16.70;99.90;;;;;;5053478;28;20174;-83
2023/08/01 06:53:17;;;;;;;1.75;0.68;;;16.70;99.90;;;;;;5038762;28;20180;-81
2023/08/01 06:55:42;;;;;;;0.85;0.55;;;16.70;99.90;;;;;;5038649;28;20178;-83
2023/08/01 06:58:08;;;;;;;1.60;0.68;;;16.70;99.90;;;;;;5056633;28;20192;-83
2023/08/01 07:00:34;;;;;;;3.03;0.82;;;16.70;99.90;;;;;;5038098;28;20237;-83
2023/08/01 07:02:59;;;;;;;0.80;0.60;;;16.70;99.90;;;;;;5056385;28;20204;-84
2023/08/01 07:05:25;;;;;;;2.08;0.88;;;16.70;99.90;;;;;;5038494;28;20174;-83
2023/08/01 07:07:51;;;;;;;0.90;0.60;;;16.80;99.90;;;;;;5056427;28;20174;-83
2023/08/01 07:10:17;;;;;;;6.90;1.00;;;16.80;99.90;;;;;;5038419;28;20213;-83
2023/08/01 07:12:43;;;;;;;3.28;0.82;;;16.90;99.90;;;;;;5038419;28;20263;-83
2023/08/01 07:15:09;;;;;;;1.70;0.93;;;17.00;99.90;;;;;;5055852;28;20275;-83
2023/08/01 07:17:35;;;;;;;6.32;1.25;;;17.00;99.90;;;;;;5038302;28;20178;-82
2023/08/01 07:20:00;;;;;;;5.75;1.17;;;17.10;99.90;;;;;;5055832;28;20316;-84
2023/08/01 07:22:26;;;;;;;1.77;0.95;;;17.10;99.90;;;;;;5055908;28;20174;-84
2023/08/01 07:24:55;;;;;;;4.53;1.08;;;17.20;99.90;;;;;;5056113;28;20624;-84
2023/08/01 07:27:21;;;;;;;2.67;1.30;;;17.20;99.90;;;;;;5038097;28;20174;-83
2023/08/01 07:29:47;;;;;;;2.00;1.38;;;17.20;99.90;;;;;;5055509;28;20174;-83
2023/08/01 07:32:13;;;;;;;2.20;1.30;;;17.20;99.90;;;;;;5055801;28;20182;-83
2023/08/01 07:34:39;;;;;;;4.18;1.55;;;17.10;99.90;;;;;;5037835;28;20647;-82
2023/08/01 07:37:05;;;;;;;6.88;1.50;;;17.10;99.90;;;;;;5055870;28;20201;-83
2023/08/01 07:39:31;;;;;;;3.17;1.52;;;17.10;99.90;;;;;;5037872;28;20213;-82
2023/08/01 07:41:57;;;;;;;1.80;1.33;;;17.10;99.90;;;;;;5055695;28;20478;-83
2023/08/01 07:44:23;;;;;;;2.22;1.38;;;17.00;99.90;;;;;;5037335;28;20208;-83
2023/08/01 07:46:48;;;;;;;2.30;1.65;;;17.10;99.90;;;;;;5055699;28;20162;-83
2023/08/01 07:49:14;;;;;;;4.97;1.90;;;17.10;99.90;;;;;;5055571;28;20332;-82
2023/08/01 07:51:40;;;;;;;2.55;2.15;;;17.10;99.90;;;;;;5055581;28;20170;-83
2023/08/01 07:54:06;;;;;;;3.78;1.98;;;17.20;99.90;;;;;;5055428;28;20177;-83
2023/08/01 07:56:31;;;;;;;7.60;2.55;;;17.20;99.90;;;;;;5055519;28;20227;-83
2023/08/01 07:58:57;;;;;;;4.75;2.47;;;17.20;99.90;;;;;;5054948;28;20177;-82
2023/08/01 08:01:23;;;;;;;2.50;2.13;;;17.20;99.90;;;;;;5055067;28;20188;-82
2023/08/01 08:03:49;;;;;;;2.35;1.90;;;17.10;99.90;;;;;;5037265;28;20517;-82
2023/08/01 08:06:14;;;;;;;2.53;2.10;;;17.10;99.90;;;;;;5055351;28;20170;-82
2023/08/01 08:08:40;;;;;;;6.40;2.45;;;17.10;99.90;;;;;;5055261;28;20176;-82
2023/08/01 08:11:06;;;;;;;4.38;2.67;;;17.20;99.90;;;;;;5055121;28;20228;-81
2023/08/01 08:13:31;;;;;;;2.85;2.00;;;17.20;99.90;;;;;;5054655;28;20184;-81
2023/08/01 08:15:58;;;;;;;7.75;2.10;;;17.10;99.90;;;;;;5055261;28;20173;-82
2023/08/01 08:18:24;;;;;;;4.47;2.20;;;17.10;99.90;;;;;;5055010;28;20169;-81
2023/08/01 08:20:50;;;;;;;7.70;2.67;;;17.20;99.90;;;;;;5054740;28;20240;-81
2023/08/01 08:23:16;;;;;;;4.65;2.85;;;17.30;99.90;;;;;;5054822;28;20178;-80
2023/08/01 08:25:44;;;;;;;8.10;3.45;;;17.40;99.90;;;;;;5036932;28;20182;-81
2023/08/01 08:28:12;;;;;;;4.38;3.15;;;17.40;99.90;;;;;;5037148;28;20549;-82
2023/08/01 08:30:38;;;;;;;5.72;3.65;;;17.50;99.90;;;;;;5036543;28;20268;-82
2023/08/01 08:33:07;;;;;;;6.57;3.92;;;17.50;99.90;;;;;;5054642;28;20261;-82
2023/08/01 08:35:36;;;;;;;5.80;3.88;;;17.50;99.90;;;;;;5054552;28;20178;-82
2023/08/01 08:38:06;;;;;;;8.35;4.43;;;17.50;99.90;;;;;;5054650;28;20173;-82
2023/08/01 08:40:33;;;;;;;15.45;4.68;;;17.50;99.90;;;;;;5054343;28;20210;-81
2023/08/01 08:43:03;;;;;;;10.75;4.22;;;17.50;99.90;;;;;;5054423;28;20196;-81
2023/08/01 08:45:33;;;;;;;5.53;4.03;;;17.50;99.90;;;;;;5036309;28;20194;-81
2023/08/01 08:48:08;;;;;;;6.50;3.80;;;17.50;99.90;;;;;;5054554;28;20165;-81
2023/08/01 08:50:38;;;;;;;7.28;4.43;;;17.50;99.90;;;;;;5036539;28;20181;-81
2023/08/01 08:53:05;;;;;;;13.70;4.68;;;17.70;99.90;;;;;;5036376;28;20208;-81
2023/08/01 08:55:31;;;;;;;10.23;4.10;;;17.80;99.90;;;;;;5054238;28;20202;-80
2023/08/01 08:57:59;;;;;;;10.52;4.45;;;17.80;99.90;;;;;;5036463;28;20177;-81
2023/08/01 09:00:27;;;;;;;10.05;4.50;;;17.90;99.90;;;;;;5053825;28;20632;-81
2023/08/01 09:02:53;;;;;;;8.48;4.75;;;18.00;99.90;;;;;;5054153;28;20664;-81
2023/08/01 09:05:22;;;;;;;11.55;4.97;;;18.00;99.90;;;;;;5053973;28;20296;-80
2023/08/01 09:07:51;;;;;;;10.73;5.00;;;18.10;99.90;;;;;;5054194;28;20295;-80
2023/08/01 09:10:17;;;;;;;15.52;4.50;;;18.30;99.90;;;;;;5036040;28;20182;-81
2023/08/01 09:12:42;;;;;;;18.10;4.40;;;18.30;99.90;;;;;;5053932;28;20231;-81
2023/08/01 09:15:10;;;;;;;12.93;4.90;;;18.40;99.90;;;;;;5051893;28;20182;-81
2023/08/01 09:17:36;;;;;;;8.57;4.18;;;18.50;99.90;;;;;;5054002;28;20169;-81
2023/08/01 09:20:08;;;;;;;6.97;4.20;;;18.70;99.90;;;;;;5053459;28;20234;-80
2023/08/01 09:22:44;;;;;;;9.40;4.65;;;18.60;99.90;;;;;;5053838;28;20172;-80
2023/08/01 09:25:11;;;;;;;18.45;4.38;;;18.60;99.90;;;;;;5035866;28;20198;-80
2023/08/01 09:27:37;;;;;;;6.20;4.28;;;18.70;99.90;;;;;;5053914;28;20157;-81
2023/08/01 09:30:17;;;;;;;7.05;3.92;;;18.90;99.90;;;;;;5035622;28;20182;-80
2023/08/01 09:32:53;;;;;;;8.35;4.10;;;19.00;99.90;;;;;;5053732;28;20169;-80
2023/08/01 09:35:19;;;;;;;7.28;3.85;;;19.20;99.90;;;;;;5053662;28;20178;-81
2023/08/01 09:37:45;;;;;;;8.95;4.55;;;19.30;99.90;;;;;;5053663;28;20616;-81
2023/08/01 09:40:11;;;;;;;6.13;3.88;;;19.50;99.90;;;;;;5053230;28;20231;-80
2023/08/01 09:42:44;;;;;;;9.90;3.83;;;19.60;99.90;;;;;;5053446;28;20166;-80
2023/08/01 09:45:16;;;;;;;9.10;3.67;;;19.90;99.90;;;;;;5035479;28;20662;-81
2023/08/01 09:47:43;;;;;;;7.43;3.33;;;19.80;99.90;;;;;;5053635;28;20169;-80
2023/08/01 09:50:20;;;;;;;10.20;3.85;;;19.50;99.90;;;;;;5035926;28;20235;-80
2023/08/01 09:52:52;;;;;;;9.93;3.67;;;19.30;99.90;;;;;;5053607;28;20615;-80
2023/08/01 09:55:31;;;;;;;13.77;3.88;;;19.20;99.90;;;;;;5053790;28;20173;-81
2023/08/01 09:57:58;;;;;;;5.63;2.90;;;19.00;99.90;;;;;;5035673;28;20519;-81
2023/08/01 10:00:28;;;;;;;10.27;3.35;;;18.90;99.90;;;;;;5035071;28;20532;-80
2023/08/01 10:03:02;;;;;;;7.93;3.15;;;18.80;99.90;;;;;;5053564;28;20189;-81
2023/08/01 10:05:31;;;;;;;7.63;2.78;;;18.90;99.90;;;;;;5035509;28;20184;-80
2023/08/01 10:08:02;;;;;;;8.95;2.50;;;19.10;99.90;;;;;;5035572;28;20189;-81
2023/08/01 10:10:28;;;;;;;4.75;2.53;;;19.30;99.90;;;;;;5053393;28;20185;-81
2023/08/01 10:12:57;;;;;;;7.97;2.55;;;19.70;99.90;;;;;;5053158;28;20254;-81
2023/08/01 10:15:28;;;;;;;6.85;2.03;;;19.90;99.90;;;;;;5053095;28;20192;-82
2023/08/01 10:17:53;;;;;;;4.72;2.05;;;20.10;99.90;;;;;;5035461;28;20177;-81
2023/08/01 10:20:21;;;;;;;5.00;2.20;;;20.10;99.90;;;;;;5035019;28;20233;-82
2023/08/01 10:22:50;;;;;;;6.85;2.15;;;20.00;99.90;;;;;;5053026;28;20635;-80
2023/08/01 10:25:18;;;;;;;4.45;2.40;;;19.90;99.90;;;;;;5036516;28;20277;-81
2023/08/01 10:27:44;;;;;;;3.45;2.00;;;20.10;99.90;;;;;;5057175;28;20212;-81
2023/08/01 10:30:10;;;;;;;5.10;1.90;;;20.30;99.90;;;;;;5056811;28;20373;-81
2023/08/01 10:32:37;;;;;;;4.20;2.38;;;20.40;99.90;;;;;;5056962;28;20223;-81
2023/08/01 10:35:05;;;;;;;3.92;1.92;;;20.40;99.90;;;;;;5039067;28;20621;-83
2023/08/01 10:37:47;;;;;;;4.13;1.80;;;20.30;99.90;;;;;;5057029;28;20288;-81
2023/08/01 10:40:13;;;;;;;4.28;1.70;;;20.30;99.90;;;;;;5056486;28;20210;-81
2023/08/01 10:42:46;;;;;;;3.63;1.70;;;20.30;99.90;;;;;;5056651;28;20627;-80
2023/08/01 10:45:27;;;;;;;3.55;1.92;;;20.50;99.90;;;;;;5056513;28;20268;-82
2023/08/01 10:47:52;;;;;;;9.48;2.10;;;20.70;99.90;;;;;;5038995;28;20174;-82
2023/08/01 10:50:18;;;;;;;4.68;2.10;;;20.60;99.90;;;;;;5056552;28;20174;-81
2023/08/01 10:52:46;;;;;;;3.70;1.77;;;20.30;99.90;;;;;;5056546;28;20189;-81
2023/08/01 10:55:12;;;;;;;4.30;2.17;;;20.30;99.90;;;;;;5056664;28;20204;-81
2023/08/01 10:57:49;;;;;;;6.15;2.28;;;20.50;99.90;;;;;;5056667;28;20501;-80
2023/08/01 11:00:19;;;;;;;3.95;1.85;;;20.60;99.90;;;;;;5038185;28;20216;-82
2023/08/01 11:02:55;;;;;;;3.90;1.80;;;20.80;99.90;;;;;;5038491;28;20182;-81
2023/08/01 11:05:23;;;;;;;7.32;2.13;;;21.00;99.90;;;;;;5038489;28;20545;-82
2023/08/01 11:07:57;;;;;;;6.82;1.55;;;21.20;99.90;;;;;;5038511;28;20170;-81
2023/08/01 11:10:30;;;;;;;3.10;1.70;;;21.40;99.90;;;;;;5056229;28;20170;-82
2023/08/01 11:12:56;;;;;;;5.80;1.90;;;21.50;99.90;;;;;;5056181;28;20166;-83
2023/08/01 11:15:26;;;;;;;3.50;1.50;;;21.60;99.90;;;;;;5037947;28;20563;-82
2023/08/01 11:17:54;;;;;;;2.15;1.38;;;21.60;99.90;;;;;;5038410;28;20559;-83
2023/08/01 11:20:21;;;;;;;3.58;1.55;;;21.40;99.90;;;;;;5055828;28;20279;-83
2023/08/01 11:23:00;;;;;;;5.47;1.77;;;21.30;99.90;;;;;;5056022;28;20220;-82
2023/08/01 11:25:40;;;;;;;4.68;1.55;;;21.00;99.90;;;;;;5038152;28;20178;-83
2023/08/01 11:28:12;;;;;;;4.15;1.30;;;21.00;99.90;;;;;;5056025;28;20162;-83
2023/08/01 11:30:38;;;;;;;3.80;1.20;;;21.20;99.90;;;;;;5037949;28;20586;-82
2023/08/01 11:33:23;;;;;;;5.68;1.40;;;21.50;99.90;;;;;;5037889;28;20683;-82
2023/08/01 11:35:56;;;;;;;6.10;1.42;;;21.60;99.90;;;;;;5055919;28;20233;-82
2023/08/01 11:38:29;;;;;;;3.83;1.13;;;21.80;99.90;;;;;;5055271;28;20521;-87
2023/08/01 11:40:57;;;;;;;2.08;1.13;;;21.70;99.90;;;;;;5037528;28;20216;-83
2023/08/01 11:43:22;;;;;;;6.65;1.45;;;21.50;99.90;;;;;;5037701;28;20284;-84
2023/08/01 11:45:56;;;;;;;5.47;1.45;;;21.20;99.90;;;;;;5037513;28;20217;-81
2023/08/01 11:48:23;;;;;;;4.82;1.40;;;20.80;99.90;;;;;;5037877;28;20185;-82
2023/08/01 11:50:49;;;;;;;3.22;1.23;;;20.40;99.90;;;;;;5037592;28;20499;-82
2023/08/01 11:53:22;;;;;;;5.07;1.45;;;20.00;99.90;;;;;;5037572;28;20188;-83
2023/08/01 11:55:56;;;;;;;6.72;1.42;;;19.70;99.90;;;;;;5055495;28;20631;-83
2023/08/01 11:58:33;;;;;;;4.95;1.75;;;19.60;99.90;;;;;;5037562;28;20186;-82
2023/08/01 12:01:05;;;;;;;4.13;1.65;;;19.80;99.90;;;;;;5037229;28;20299;-85
2023/08/01 12:03:31;;;;;;;3.67;1.50;;;19.90;99.90;;;;;;5055167;28;20174;-82
2023/08/01 12:06:11;;;;;;;7.78;1.60;;;19.90;99.90;;;;;;5055424;28;20200;-83
2023/08/01 12:08:37;;;;;;;2.08;0.80;;;20.00;99.90;;;;;;5037715;28;20513;-82
2023/08/01 12:11:03;;;;;;;2.42;0.63;;;20.00;99.90;;;;;;5054689;28;20253;-83
2023/08/01 12:13:30;;;;;;;2.83;0.55;;;20.10;99.90;;;;;;5035751;28;20265;-83
2023/08/01 12:15:57;;;;;;;2.70;0.70;;;20.40;99.90;;;;;;5037295;28;20178;-81
2023/08/01 12:18:28;;;;;;;1.60;0.60;;;20.60;99.90;;;;;;5055207;28;20181;-82
2023/08/01 12:20:54;;;;;;;2.20;0.77;;;20.90;99.90;;;;;;5054407;28;20232;-82
2023/08/01 12:23:21;;;;;;;3.38;1.10;;;21.20;99.90;;;;;;5054797;28;20232;-82
2023/08/01 12:25:47;;;;;;;2.97;1.20;;;21.40;99.90;;;;;;5037054;28;20566;-82
2023/08/01 12:28:16;;;;;;;4.32;1.10;;;21.60;99.90;;;;;;5054908;28;20166;-82
2023/08/01 12:30:43;;;;;;;3.85;1.40;;;21.70;99.90;;;;;;5054908;28;20276;-83
2023/08/01 12:33:09;;;;;;;3.45;1.40;;;21.60;99.90;;;;;;5036899;28;20199;-82
2023/08/01 12:35:39;;;;;;;4.10;1.48;;;21.30;99.90;;;;;;5036904;28;20189;-82
2023/08/01 12:38:05;;;;;;;6.28;1.48;;;20.90;99.90;;;;;;5054851;28;20208;-83
2023/08/01 12:40:30;;;;;;;1.98;1.20;;;20.60;99.90;;;;;;5036296;28;20598;-83
2023/08/01 12:42:56;;;;;;;4.20;1.70;;;20.30;99.90;;;;;;5036693;28;20223;-83
2023/08/01 12:45:22;;;;;;;3.08;1.50;;;19.90;99.90;;;;;;5054142;28;20529;-83
2023/08/01 12:47:49;;;;;;;4.03;2.25;;;19.60;99.90;;;;;;5053951;28;20216;-82